Capitán FAP Renán Elías Olivera International Airport
SPSO : rendu visible

Aérodrome :











RETROUVEZ-NOUS SUR...

 
LOGIN :

S'inscrire | Disclaimer

   EN    FR    IT 

 









Légende :    VFR   VFR Marginal   IFR   IFR Intensif   IFR Très Intensif
Visi : 
Plafond : 
>= 8 km
>= 3000ft
5 à 8 km
1000 à 3000 ft
1500m à 5 km
500 à 1000 ft
800 à 1500m
200 à 500 ft
< 800m
< 200 ft
Symboles :   Orages  Brouillard  Fortes neiges  Fortes précipitations  Vent > 20 kt






- Altitude de l'aérodrome : 39 ft
- Code IATA : PIO


SPSO - Capitán FAP Renán Elías Olivera International

DERNIER METAR :
  • 041000Z 00000KT 5000 BR FU NSC 20/18 Q1007 RMK PP000

METARs EXPIRÉS :
  • 040900Z 08003KT 5000 BR FU NSC 20/17 Q1007 RMK PP000
  • 040800Z 00000KT 6000 NSC 20/18 Q1008 RMK PP000

TAF SPSO
Valide du 04 à 06h jusqu'au 05 à 06h UTC


040500Z 0406/0506 21006KT 8000 SCT015 TX27/0419Z TN20/0411Z
TEMPO 0409/0412 4500 BR
BECMG 0414/0416 30010KT CAVOK
BECMG 0417/0419 22017KT
BECMG 0502/0504 23007KT



MET'MAP, la Météo Aéronautique d'un coup d'oeil ! - Copyright ORBIFLY Décembre 2007 - Disclaimer

ORBIFLY MET'MAP TEAM :

Programmation & Développement : Alexandra Zaïnal
Sur une idée originale de : Baudouin d'Aumeries
Assistance à la programmation : Marc-Olivier Méhu
Soutien technique & logistique : Manuel Goepfert

Contact : metmap@orbifly.com




SOURCES & CREDITS :

   NOAA       Earth
Advisory